createdAt,value
2019-02-26T00:00:47.339Z,1029.56
2019-02-26T00:01:50.472Z,1029.54
2019-02-26T00:02:50.649Z,1029.51
2019-02-26T00:03:46.327Z,1029.49
2019-02-26T00:04:46.306Z,1029.49
2019-02-26T00:05:49.834Z,1029.47
2019-02-26T00:06:49.026Z,1029.51
2019-02-26T00:07:49.038Z,1029.50
2019-02-26T00:08:49.232Z,1029.54
2019-02-26T00:09:46.251Z,1029.55
2019-02-26T00:10:46.268Z,1029.52
2019-02-26T00:11:46.231Z,1029.53
2019-02-26T00:12:46.219Z,1029.57
2019-02-26T00:13:48.064Z,1029.49
2019-02-26T00:14:47.875Z,1029.50
2019-02-26T00:15:48.318Z,1029.50
2019-02-26T00:16:46.750Z,1029.42
2019-02-26T00:17:48.374Z,1029.38
2019-02-26T00:18:46.160Z,1029.32
2019-02-26T00:19:46.152Z,1029.30
2019-02-26T00:20:46.131Z,1029.28
2019-02-26T00:21:47.946Z,1029.29
2019-02-26T00:22:46.109Z,1029.25
2019-02-26T00:23:46.624Z,1029.21
2019-02-26T00:24:46.636Z,1029.23
2019-02-26T00:25:46.078Z,1029.18
2019-02-26T00:26:46.078Z,1029.14
2019-02-26T00:27:47.638Z,1029.15
2019-02-26T00:28:46.038Z,1029.15
2019-02-26T00:29:46.466Z,1029.08
2019-02-26T00:30:46.020Z,1029.08
2019-02-26T00:31:46.926Z,1029.04
2019-02-26T00:32:45.999Z,1029.04
2019-02-26T00:33:46.008Z,1028.98
2019-02-26T00:34:45.979Z,1028.99
2019-02-26T00:35:47.678Z,1029.00
2019-02-26T00:36:45.968Z,1028.96
2019-02-26T00:37:46.684Z,1029.02
2019-02-26T00:38:45.939Z,1029.00
2019-02-26T00:39:47.502Z,1029.01
2019-02-26T00:40:45.904Z,1029.03
2019-02-26T00:41:49.317Z,1029.01
2019-02-26T00:42:50.249Z,1029.01
2019-02-26T00:43:46.866Z,1029.01
2019-02-26T00:44:45.870Z,1029.04
2019-02-26T00:45:45.900Z,1029.03
2019-02-26T00:46:45.856Z,1029.02
2019-02-26T00:47:46.285Z,1029.06
2019-02-26T00:48:45.817Z,1029.06
2019-02-26T00:49:46.304Z,1029.09
2019-02-26T00:50:45.788Z,1029.11
2019-02-26T00:51:47.887Z,1029.14
2019-02-26T00:52:45.765Z,1029.11
2019-02-26T00:53:48.862Z,1029.12
2019-02-26T00:54:46.754Z,1029.15
2019-02-26T00:55:45.739Z,1029.11
2019-02-26T00:56:45.742Z,1029.13
2019-02-26T00:57:45.711Z,1029.09
2019-02-26T00:58:46.316Z,1029.17
2019-02-26T00:59:46.410Z,1029.17
2019-02-26T01:00:45.686Z,1029.11
2019-02-26T01:01:47.911Z,1029.11
2019-02-26T01:02:45.663Z,1029.17
2019-02-26T01:03:47.111Z,1029.20
2019-02-26T01:04:46.756Z,1029.22
2019-02-26T01:05:45.630Z,1029.17
2019-02-26T01:06:45.644Z,1029.17
2019-02-26T01:07:47.420Z,1029.15
2019-02-26T01:08:47.085Z,1029.17
2019-02-26T01:09:45.578Z,1029.13
2019-02-26T01:10:45.856Z,1029.25
2019-02-26T01:11:47.536Z,1029.19
2019-02-26T01:12:45.546Z,1029.27
2019-02-26T01:13:45.551Z,1029.29
2019-02-26T01:14:46.349Z,1029.23
2019-02-26T01:15:45.505Z,1029.22
2019-02-26T01:16:46.092Z,1029.16
2019-02-26T01:17:45.487Z,1029.19
2019-02-26T01:18:47.235Z,1029.26
2019-02-26T01:19:45.466Z,1029.34
2019-02-26T01:20:48.309Z,1029.35
2019-02-26T01:21:45.457Z,1029.29
2019-02-26T01:22:45.648Z,1029.25
2019-02-26T01:23:45.423Z,1029.26
2019-02-26T01:24:45.410Z,1029.29
2019-02-26T01:25:45.390Z,1029.31
2019-02-26T01:26:45.402Z,1029.27
2019-02-26T01:27:46.005Z,1029.22
2019-02-26T01:28:48.329Z,1029.18
2019-02-26T01:29:47.345Z,1029.03
2019-02-26T01:30:45.340Z,1029.09
2019-02-26T01:31:45.344Z,1029.12
2019-02-26T01:32:45.318Z,1029.17
2019-02-26T01:33:46.764Z,1029.12
2019-02-26T01:34:47.278Z,1029.09
2019-02-26T01:35:45.292Z,1028.99
2019-02-26T01:36:47.229Z,1028.94
2019-02-26T01:37:45.257Z,1028.96
2019-02-26T01:38:46.360Z,1029.00
2019-02-26T01:39:47.080Z,1029.01
2019-02-26T01:40:46.543Z,1029.01
2019-02-26T01:41:46.066Z,1029.05
2019-02-26T01:42:49.767Z,1029.06
2019-02-26T01:43:46.190Z,1029.06
2019-02-26T01:44:45.189Z,1029.12
2019-02-26T01:45:46.174Z,1029.13
2019-02-26T01:46:45.182Z,1029.12
2019-02-26T01:47:47.717Z,1029.08
2019-02-26T01:48:45.138Z,1029.06
2019-02-26T01:49:46.542Z,1029.02
2019-02-26T01:50:45.120Z,1028.99
2019-02-26T01:51:47.476Z,1028.98
2019-02-26T01:52:45.097Z,1028.96
2019-02-26T01:53:46.923Z,1028.93
2019-02-26T01:54:45.070Z,1028.97
2019-02-26T01:55:45.917Z,1028.95
2019-02-26T01:56:45.098Z,1028.97
2019-02-26T01:57:45.034Z,1028.93
2019-02-26T01:58:45.024Z,1028.94
2019-02-26T01:59:45.014Z,1028.92
2019-02-26T02:00:45.002Z,1028.93
2019-02-26T02:01:46.526Z,1028.93
2019-02-26T02:02:44.994Z,1028.97
2019-02-26T02:03:47.001Z,1028.95
2019-02-26T02:04:44.976Z,1028.97
2019-02-26T02:05:45.829Z,1028.98
2019-02-26T02:06:44.954Z,1028.97
2019-02-26T02:07:48.481Z,1028.96
2019-02-26T02:08:45.891Z,1028.91
2019-02-26T02:09:48.676Z,1028.85
2019-02-26T02:10:45.886Z,1028.87
2019-02-26T02:11:44.916Z,1028.78
2019-02-26T02:12:44.868Z,1028.81
2019-02-26T02:13:44.856Z,1028.80
2019-02-26T02:14:44.847Z,1028.75
2019-02-26T02:15:46.510Z,1028.71
2019-02-26T02:16:44.836Z,1028.75
2019-02-26T02:17:44.817Z,1028.78
2019-02-26T02:18:48.074Z,1028.77
2019-02-26T02:19:44.794Z,1028.79
2019-02-26T02:20:44.776Z,1028.75
2019-02-26T02:21:44.782Z,1028.73
2019-02-26T02:22:44.758Z,1028.75
2019-02-26T02:23:46.435Z,1028.76
2019-02-26T02:24:46.714Z,1028.74
2019-02-26T02:25:45.666Z,1028.78
2019-02-26T02:26:47.451Z,1028.78
2019-02-26T02:27:47.515Z,1028.79
2019-02-26T02:28:45.704Z,1028.80
2019-02-26T02:29:46.122Z,1028.75
2019-02-26T02:30:44.680Z,1028.76
2019-02-26T02:31:44.651Z,1028.70
2019-02-26T02:32:47.209Z,1028.64
2019-02-26T02:33:45.626Z,1028.63
2019-02-26T02:34:44.616Z,1028.70
2019-02-26T02:35:44.606Z,1028.65
2019-02-26T02:36:44.597Z,1028.58
2019-02-26T02:37:44.716Z,1028.51
2019-02-26T02:38:44.589Z,1028.57
2019-02-26T02:39:44.583Z,1028.58
2019-02-26T02:40:46.293Z,1028.62
2019-02-26T02:41:45.437Z,1028.52
2019-02-26T02:42:48.414Z,1028.51
2019-02-26T02:43:44.523Z,1028.53
2019-02-26T02:44:46.736Z,1028.52
2019-02-26T02:45:44.515Z,1028.52
2019-02-26T02:46:46.293Z,1028.62
2019-02-26T02:47:44.500Z,1028.69
2019-02-26T02:48:44.465Z,1028.68
2019-02-26T02:49:44.469Z,1028.65
2019-02-26T02:50:44.451Z,1028.70
2019-02-26T02:51:44.435Z,1028.67
2019-02-26T02:52:44.434Z,1028.65
2019-02-26T02:53:45.270Z,1028.78
2019-02-26T02:54:47.010Z,1028.72
2019-02-26T02:55:47.008Z,1028.76
2019-02-26T02:56:44.458Z,1028.81
2019-02-26T02:57:46.488Z,1028.88
2019-02-26T02:58:46.886Z,1028.95
2019-02-26T02:59:44.341Z,1028.99
2019-02-26T03:00:46.105Z,1029.00
2019-02-26T03:01:45.796Z,1028.96
2019-02-26T03:02:46.676Z,1029.04
2019-02-26T03:03:47.629Z,1028.98
2019-02-26T03:04:44.281Z,1028.92
2019-02-26T03:05:45.916Z,1028.89
2019-02-26T03:06:44.260Z,1028.97
2019-02-26T03:07:47.539Z,1028.94
2019-02-26T03:08:45.230Z,1028.90
2019-02-26T03:09:45.779Z,1028.93
2019-02-26T03:10:45.027Z,1028.90
2019-02-26T03:11:46.429Z,1028.89
2019-02-26T03:12:48.695Z,1028.87
2019-02-26T03:13:45.768Z,1028.84
2019-02-26T03:14:44.584Z,1028.89
2019-02-26T03:15:44.157Z,1028.90
2019-02-26T03:16:45.570Z,1028.88
2019-02-26T03:17:44.139Z,1028.83
2019-02-26T03:18:44.124Z,1028.84
2019-02-26T03:19:44.113Z,1028.78
2019-02-26T03:20:44.100Z,1028.78
2019-02-26T03:21:45.421Z,1028.69
2019-02-26T03:22:48.765Z,1028.75
2019-02-26T03:23:45.592Z,1028.80
2019-02-26T03:24:44.080Z,1028.73
2019-02-26T03:25:44.539Z,1028.72
2019-02-26T03:26:44.031Z,1028.68
2019-02-26T03:27:44.046Z,1028.71
2019-02-26T03:28:44.647Z,1028.63
2019-02-26T03:29:45.054Z,1028.76
2019-02-26T03:30:44.660Z,1028.73
2019-02-26T03:31:47.055Z,1028.74
2019-02-26T03:32:47.236Z,1028.71
2019-02-26T03:33:44.953Z,1028.70
2019-02-26T03:34:43.945Z,1028.68
2019-02-26T03:35:43.932Z,1028.60
2019-02-26T03:36:45.772Z,1028.68
2019-02-26T03:37:43.948Z,1028.68
2019-02-26T03:38:46.434Z,1028.64
2019-02-26T03:39:43.898Z,1028.60
2019-02-26T03:40:43.872Z,1028.57
2019-02-26T03:41:45.819Z,1028.60
2019-02-26T03:42:46.091Z,1028.57
2019-02-26T03:43:43.842Z,1028.56
2019-02-26T03:44:46.066Z,1028.58
2019-02-26T03:45:47.315Z,1028.60
2019-02-26T03:46:43.808Z,1028.54
2019-02-26T03:47:43.821Z,1028.51
2019-02-26T03:48:43.786Z,1028.53
2019-02-26T03:49:43.777Z,1028.54
2019-02-26T03:50:44.643Z,1028.56
2019-02-26T03:51:43.758Z,1028.56
2019-02-26T03:52:43.767Z,1028.59
2019-02-26T03:53:44.167Z,1028.56
2019-02-26T03:54:45.960Z,1028.65
2019-02-26T03:55:44.022Z,1028.64
2019-02-26T03:56:43.694Z,1028.60
2019-02-26T03:57:47.505Z,1028.69
2019-02-26T03:58:44.672Z,1028.74
2019-02-26T03:59:43.680Z,1028.73
2019-02-26T04:00:44.818Z,1028.84
2019-02-26T04:01:43.638Z,1028.84
2019-02-26T04:02:47.690Z,1028.83
2019-02-26T04:03:43.622Z,1028.71
2019-02-26T04:04:45.852Z,1028.74
2019-02-26T04:05:44.600Z,1028.75
2019-02-26T04:06:46.764Z,1028.73
2019-02-26T04:07:43.594Z,1028.65
2019-02-26T04:08:46.189Z,1028.62
2019-02-26T04:09:44.397Z,1028.62
2019-02-26T04:10:45.630Z,1028.66
2019-02-26T04:11:45.563Z,1028.70
2019-02-26T04:12:45.031Z,1028.64
2019-02-26T04:13:46.095Z,1028.70
2019-02-26T04:14:43.501Z,1028.74
2019-02-26T04:15:43.493Z,1028.79
2019-02-26T04:16:43.738Z,1028.69
2019-02-26T04:17:43.486Z,1028.62
2019-02-26T04:18:43.446Z,1028.66
2019-02-26T04:19:44.494Z,1028.56
2019-02-26T04:20:44.397Z,1028.49
2019-02-26T04:21:43.418Z,1028.44
2019-02-26T04:22:48.892Z,1028.44
2019-02-26T04:23:46.520Z,1028.38
2019-02-26T04:24:43.389Z,1028.42
2019-02-26T04:25:43.377Z,1028.43
2019-02-26T04:26:43.360Z,1028.40
2019-02-26T04:27:44.163Z,1028.40
2019-02-26T04:28:44.972Z,1028.45
2019-02-26T04:29:44.122Z,1028.41
2019-02-26T04:30:44.625Z,1028.37
2019-02-26T04:31:44.591Z,1028.36
2019-02-26T04:32:43.534Z,1028.36
2019-02-26T04:33:43.288Z,1028.45
2019-02-26T04:34:43.270Z,1028.41
2019-02-26T04:35:44.893Z,1028.44
2019-02-26T04:36:44.828Z,1028.38
2019-02-26T04:37:43.251Z,1028.26
2019-02-26T04:38:43.803Z,1028.30
2019-02-26T04:39:44.967Z,1028.24
2019-02-26T04:40:43.201Z,1028.24
2019-02-26T04:41:43.189Z,1028.26
2019-02-26T04:42:45.956Z,1028.28
2019-02-26T04:43:43.173Z,1028.31
2019-02-26T04:44:43.172Z,1028.33
2019-02-26T04:45:43.147Z,1028.39
2019-02-26T04:46:43.138Z,1028.42
2019-02-26T04:47:45.961Z,1028.38
2019-02-26T04:48:44.118Z,1028.39
2019-02-26T04:49:43.217Z,1028.36
2019-02-26T04:50:44.529Z,1028.36
2019-02-26T04:51:45.042Z,1028.44
2019-02-26T04:52:43.627Z,1028.45
2019-02-26T04:53:43.077Z,1028.41
2019-02-26T04:54:43.050Z,1028.34
2019-02-26T04:55:44.922Z,1028.34
2019-02-26T04:56:45.103Z,1028.29
2019-02-26T04:57:45.516Z,1028.33
2019-02-26T04:58:45.906Z,1028.32
2019-02-26T04:59:43.821Z,1028.36
2019-02-26T05:00:42.978Z,1028.28
2019-02-26T05:01:44.638Z,1028.32
2019-02-26T05:02:42.954Z,1028.33
2019-02-26T05:03:42.976Z,1028.33
2019-02-26T05:04:42.931Z,1028.33
2019-02-26T05:05:42.933Z,1028.33
2019-02-26T05:06:42.907Z,1028.26
2019-02-26T05:07:46.532Z,1028.25
2019-02-26T05:08:43.000Z,1028.24
2019-02-26T05:09:42.882Z,1028.28
2019-02-26T05:10:42.866Z,1028.27
2019-02-26T05:11:42.851Z,1028.32
2019-02-26T05:12:42.846Z,1028.31
2019-02-26T05:13:42.849Z,1028.26
2019-02-26T05:14:42.829Z,1028.33
2019-02-26T05:15:43.658Z,1028.31
2019-02-26T05:16:42.795Z,1028.35
2019-02-26T05:17:42.785Z,1028.35
2019-02-26T05:18:44.402Z,1028.41
2019-02-26T05:19:46.101Z,1028.39
2019-02-26T05:20:48.102Z,1028.42
2019-02-26T05:21:42.743Z,1028.47
2019-02-26T05:22:42.730Z,1028.45
2019-02-26T05:23:42.735Z,1028.37
2019-02-26T05:24:44.805Z,1028.39
2019-02-26T05:25:44.815Z,1028.41
2019-02-26T05:26:42.686Z,1028.41
2019-02-26T05:27:45.238Z,1028.38
2019-02-26T05:28:46.142Z,1028.34
2019-02-26T05:29:43.419Z,1028.34
2019-02-26T05:30:43.867Z,1028.29
2019-02-26T05:31:43.215Z,1028.27
2019-02-26T05:32:42.614Z,1028.22
2019-02-26T05:33:42.626Z,1028.21
2019-02-26T05:34:45.154Z,1028.22
2019-02-26T05:35:45.645Z,1028.22
2019-02-26T05:36:45.442Z,1028.19
2019-02-26T05:37:42.564Z,1028.16
2019-02-26T05:38:42.567Z,1028.15
2019-02-26T05:39:43.162Z,1028.11
2019-02-26T05:40:43.355Z,1028.12
2019-02-26T05:41:42.521Z,1028.09
2019-02-26T05:42:42.508Z,1028.09
2019-02-26T05:43:42.509Z,1028.09
2019-02-26T05:44:42.474Z,1028.12
2019-02-26T05:45:42.477Z,1028.19
2019-02-26T05:46:42.459Z,1028.21
2019-02-26T05:47:43.636Z,1028.24
2019-02-26T05:48:43.024Z,1028.26
2019-02-26T05:49:43.801Z,1028.25
2019-02-26T05:50:44.771Z,1028.22
2019-02-26T05:51:42.398Z,1028.27
2019-02-26T05:52:42.395Z,1028.33
2019-02-26T05:53:42.399Z,1028.33
2019-02-26T05:54:42.372Z,1028.38
2019-02-26T05:55:47.079Z,1028.42
2019-02-26T05:56:44.140Z,1028.44
2019-02-26T05:57:42.333Z,1028.43
2019-02-26T05:58:46.393Z,1028.48
2019-02-26T05:59:42.322Z,1028.49
2019-02-26T06:00:42.307Z,1028.51
2019-02-26T06:01:43.795Z,1028.51
2019-02-26T06:02:44.878Z,1028.49
2019-02-26T06:03:45.726Z,1028.62
2019-02-26T06:04:44.516Z,1028.57
2019-02-26T06:05:45.740Z,1028.58
2019-02-26T06:06:42.230Z,1028.59
2019-02-26T06:07:42.224Z,1028.61
2019-02-26T06:08:42.233Z,1028.61
2019-02-26T06:09:42.196Z,1028.58
2019-02-26T06:10:42.194Z,1028.52
2019-02-26T06:11:46.910Z,1028.49
2019-02-26T06:12:44.622Z,1028.51
2019-02-26T06:13:43.215Z,1028.46
2019-02-26T06:14:42.150Z,1028.50
2019-02-26T06:15:42.143Z,1028.47
2019-02-26T06:16:43.225Z,1028.45
2019-02-26T06:17:45.228Z,1028.49
2019-02-26T06:18:44.048Z,1028.53
2019-02-26T06:19:42.932Z,1028.42
2019-02-26T06:20:42.074Z,1028.44
2019-02-26T06:21:44.237Z,1028.38
2019-02-26T06:22:42.079Z,1028.33
2019-02-26T06:23:43.201Z,1028.32
2019-02-26T06:24:42.057Z,1028.29
2019-02-26T06:25:42.022Z,1028.32
2019-02-26T06:26:43.196Z,1028.32
2019-02-26T06:27:41.999Z,1028.32
2019-02-26T06:28:43.505Z,1028.44
2019-02-26T06:29:41.996Z,1028.40
2019-02-26T06:30:41.967Z,1028.39
2019-02-26T06:31:43.006Z,1028.38
2019-02-26T06:32:44.438Z,1028.41
2019-02-26T06:33:43.676Z,1028.47
2019-02-26T06:34:41.940Z,1028.52
2019-02-26T06:35:42.857Z,1028.63
2019-02-26T06:36:42.481Z,1028.60
2019-02-26T06:37:41.884Z,1028.62
2019-02-26T06:38:41.878Z,1028.68
2019-02-26T06:39:41.886Z,1028.62
2019-02-26T06:40:45.884Z,1028.59
2019-02-26T06:41:44.423Z,1028.48
2019-02-26T06:42:41.830Z,1028.48
2019-02-26T06:43:45.025Z,1028.41
2019-02-26T06:44:43.820Z,1028.43
2019-02-26T06:45:43.582Z,1028.41
2019-02-26T06:46:41.794Z,1028.35
2019-02-26T06:47:41.771Z,1028.35
2019-02-26T06:48:41.763Z,1028.32
2019-02-26T06:49:43.246Z,1028.36
2019-02-26T06:50:43.508Z,1028.33
2019-02-26T06:51:42.979Z,1028.32
2019-02-26T06:52:43.046Z,1028.34
2019-02-26T06:53:45.040Z,1028.32
2019-02-26T06:54:47.819Z,1028.27
2019-02-26T06:55:42.682Z,1028.28
2019-02-26T06:56:43.894Z,1028.28
2019-02-26T06:57:44.011Z,1028.27
2019-02-26T06:58:43.249Z,1028.31
2019-02-26T06:59:41.670Z,1028.33
2019-02-26T07:00:43.638Z,1028.38
2019-02-26T07:01:41.952Z,1028.39
2019-02-26T07:02:45.490Z,1028.42
2019-02-26T07:03:41.592Z,1028.41
2019-02-26T07:04:41.607Z,1028.43
2019-02-26T07:05:42.383Z,1028.52
2019-02-26T07:06:41.560Z,1028.55
2019-02-26T07:07:41.569Z,1028.53
2019-02-26T07:08:42.099Z,1028.57
2019-02-26T07:09:43.778Z,1028.59
2019-02-26T07:10:41.512Z,1028.55
2019-02-26T07:11:41.511Z,1028.52
2019-02-26T07:12:43.124Z,1028.52
2019-02-26T07:13:43.975Z,1028.52
2019-02-26T07:14:41.505Z,1028.50
2019-02-26T07:15:42.945Z,1028.49
2019-02-26T07:16:41.444Z,1028.52
2019-02-26T07:17:42.991Z,1028.45
2019-02-26T07:18:41.425Z,1028.45
2019-02-26T07:19:41.435Z,1028.45
2019-02-26T07:20:46.518Z,1028.45
2019-02-26T07:21:43.427Z,1028.47
2019-02-26T07:22:42.013Z,1028.44
2019-02-26T07:23:41.372Z,1028.46
2019-02-26T07:24:43.648Z,1028.50
2019-02-26T07:25:43.886Z,1028.48
2019-02-26T07:26:43.623Z,1028.51
2019-02-26T07:27:41.324Z,1028.50
2019-02-26T07:28:42.360Z,1028.54
2019-02-26T07:29:44.379Z,1028.53
2019-02-26T07:30:42.855Z,1028.52
2019-02-26T07:31:41.299Z,1028.50
2019-02-26T07:32:43.166Z,1028.52
2019-02-26T07:33:41.256Z,1028.55
2019-02-26T07:34:42.826Z,1028.54
2019-02-26T07:35:41.237Z,1028.51
2019-02-26T07:36:43.169Z,1028.54
2019-02-26T07:37:41.232Z,1028.51
2019-02-26T07:38:43.820Z,1028.51
2019-02-26T07:39:41.951Z,1028.46
2019-02-26T07:40:41.176Z,1028.51
2019-02-26T07:41:42.271Z,1028.57
2019-02-26T07:42:41.938Z,1028.59
2019-02-26T07:43:43.951Z,1028.66
2019-02-26T07:44:42.158Z,1028.69
2019-02-26T07:45:41.120Z,1028.75
2019-02-26T07:46:42.559Z,1028.79
2019-02-26T07:47:41.096Z,1028.80
2019-02-26T07:48:41.086Z,1028.75
2019-02-26T07:49:41.113Z,1028.78
2019-02-26T07:50:45.372Z,1028.85
2019-02-26T07:51:42.893Z,1028.82
2019-02-26T07:52:41.039Z,1028.87
2019-02-26T07:53:44.410Z,1028.83
2019-02-26T07:54:42.838Z,1028.80
2019-02-26T07:55:42.374Z,1028.83
2019-02-26T07:56:40.996Z,1028.83
2019-02-26T07:57:43.015Z,1028.82
2019-02-26T07:58:42.959Z,1028.83
2019-02-26T07:59:42.576Z,1028.86
2019-02-26T08:00:42.900Z,1028.88
2019-02-26T08:01:43.112Z,1028.85
2019-02-26T08:02:40.925Z,1028.81
2019-02-26T08:03:42.060Z,1028.81
2019-02-26T08:04:41.847Z,1028.84
2019-02-26T08:05:40.896Z,1028.88
2019-02-26T08:06:40.883Z,1028.89
2019-02-26T08:07:40.883Z,1028.89
2019-02-26T08:08:42.061Z,1028.87
2019-02-26T08:09:40.866Z,1028.90
2019-02-26T08:10:42.795Z,1028.84
2019-02-26T08:11:42.128Z,1028.83
2019-02-26T08:12:42.569Z,1028.81
2019-02-26T08:13:40.805Z,1028.80
2019-02-26T08:14:42.776Z,1028.86
2019-02-26T08:15:40.808Z,1028.83
2019-02-26T08:16:40.774Z,1028.83
2019-02-26T08:17:40.760Z,1028.89
2019-02-26T08:18:40.752Z,1028.79
2019-02-26T08:19:43.710Z,1028.86
2019-02-26T08:20:41.728Z,1028.85
2019-02-26T08:21:40.720Z,1028.87
2019-02-26T08:22:40.715Z,1028.83
2019-02-26T08:23:41.390Z,1028.82
2019-02-26T08:24:40.759Z,1028.80
2019-02-26T08:25:40.682Z,1028.84
2019-02-26T08:26:42.867Z,1028.78
2019-02-26T08:27:40.659Z,1028.82
2019-02-26T08:28:41.965Z,1028.79
2019-02-26T08:29:40.660Z,1028.78
2019-02-26T08:30:44.473Z,1028.81
2019-02-26T08:31:42.626Z,1028.84
2019-02-26T08:32:40.602Z,1028.85
2019-02-26T08:33:40.603Z,1028.71
2019-02-26T08:34:40.597Z,1028.76
2019-02-26T08:35:40.560Z,1028.75
2019-02-26T08:36:40.545Z,1028.80
2019-02-26T08:37:40.550Z,1028.77
2019-02-26T08:38:40.536Z,1028.72
2019-02-26T08:39:40.541Z,1028.71
2019-02-26T08:40:40.507Z,1028.72
2019-02-26T08:41:40.488Z,1028.71
2019-02-26T08:42:40.480Z,1028.69
2019-02-26T08:43:44.161Z,1028.68
2019-02-26T08:44:41.480Z,1028.72
2019-02-26T08:45:40.458Z,1028.73
2019-02-26T08:46:42.718Z,1028.70
2019-02-26T08:47:40.425Z,1028.71
2019-02-26T08:48:41.304Z,1028.68
2019-02-26T08:49:42.580Z,1028.69
2019-02-26T08:50:42.278Z,1028.69
2019-02-26T08:51:40.383Z,1028.69
2019-02-26T08:52:40.366Z,1028.68
2019-02-26T08:53:40.356Z,1028.72
2019-02-26T08:54:40.375Z,1028.70
2019-02-26T08:55:40.332Z,1028.71
2019-02-26T08:56:40.950Z,1028.73
2019-02-26T08:57:40.308Z,1028.75
2019-02-26T08:58:41.124Z,1028.74
2019-02-26T08:59:42.084Z,1028.72
2019-02-26T09:00:40.277Z,1028.71
2019-02-26T09:01:40.363Z,1028.70
2019-02-26T09:02:41.206Z,1028.74
2019-02-26T09:03:41.021Z,1028.70
2019-02-26T09:04:42.286Z,1028.74
2019-02-26T09:05:40.250Z,1028.70
2019-02-26T09:06:40.208Z,1028.79
2019-02-26T09:07:40.842Z,1028.74
2019-02-26T09:08:41.217Z,1028.76
2019-02-26T09:09:40.181Z,1028.72
2019-02-26T09:10:41.322Z,1028.69
2019-02-26T09:11:40.153Z,1028.71
2019-02-26T09:12:41.897Z,1028.74
2019-02-26T09:13:41.275Z,1028.77
2019-02-26T09:14:40.876Z,1028.80
2019-02-26T09:15:41.375Z,1028.77
2019-02-26T09:16:40.104Z,1028.82
2019-02-26T09:17:42.065Z,1028.82
2019-02-26T09:18:40.575Z,1028.82
2019-02-26T09:19:40.087Z,1028.84
2019-02-26T09:20:40.080Z,1028.88
2019-02-26T09:21:42.589Z,1028.90
2019-02-26T09:22:40.536Z,1028.86
2019-02-26T09:23:40.045Z,1028.92
2019-02-26T09:24:40.012Z,1028.89
2019-02-26T09:25:40.020Z,1028.83
2019-02-26T09:26:39.994Z,1028.89
2019-02-26T09:27:43.017Z,1028.94
2019-02-26T09:28:39.965Z,1028.94
2019-02-26T09:29:43.929Z,1028.95
2019-02-26T09:30:40.962Z,1028.90
2019-02-26T09:31:39.930Z,1028.93
2019-02-26T09:32:42.063Z,1028.91
2019-02-26T09:33:40.931Z,1028.86
2019-02-26T09:34:40.029Z,1028.91
2019-02-26T09:35:39.908Z,1028.97
2019-02-26T09:36:39.878Z,1028.95
2019-02-26T09:37:39.879Z,1029.04
2019-02-26T09:38:41.781Z,1029.05
2019-02-26T09:39:39.833Z,1029.06
2019-02-26T09:40:39.859Z,1029.10
2019-02-26T09:41:40.398Z,1029.11
2019-02-26T09:42:39.809Z,1029.15
2019-02-26T09:43:41.028Z,1029.11
2019-02-26T09:44:39.793Z,1029.13
2019-02-26T09:45:41.735Z,1029.14
2019-02-26T09:46:41.935Z,1029.12
2019-02-26T09:47:39.765Z,1029.16
2019-02-26T09:48:41.112Z,1029.20
2019-02-26T09:49:39.726Z,1029.25
2019-02-26T09:50:41.337Z,1029.30
2019-02-26T09:51:40.087Z,1029.34
2019-02-26T09:52:39.688Z,1029.27
2019-02-26T09:53:39.680Z,1029.27
2019-02-26T09:54:42.657Z,1029.24
2019-02-26T09:55:39.678Z,1029.35
2019-02-26T09:56:39.646Z,1029.33
2019-02-26T09:57:39.642Z,1029.42
2019-02-26T09:58:40.356Z,1029.41
2019-02-26T09:59:39.614Z,1029.37
2019-02-26T10:00:40.487Z,1029.31
2019-02-26T10:01:40.790Z,1029.31
2019-02-26T10:02:40.139Z,1029.34
2019-02-26T10:03:41.323Z,1029.34
2019-02-26T10:04:39.558Z,1029.33
2019-02-26T10:05:39.556Z,1029.35
2019-02-26T10:06:40.714Z,1029.39
2019-02-26T10:07:39.517Z,1029.50
2019-02-26T10:08:39.508Z,1029.46
2019-02-26T10:09:40.740Z,1029.53
2019-02-26T10:10:40.510Z,1029.52
2019-02-26T10:11:41.911Z,1029.47
2019-02-26T10:12:39.467Z,1029.46
2019-02-26T10:13:41.479Z,1029.44
2019-02-26T10:14:39.440Z,1029.43
2019-02-26T10:15:40.616Z,1029.45
2019-02-26T10:16:39.423Z,1029.46
2019-02-26T10:17:40.793Z,1029.44
2019-02-26T10:18:39.394Z,1029.37
2019-02-26T10:19:41.032Z,1029.39
2019-02-26T10:20:39.403Z,1029.31
2019-02-26T10:21:40.060Z,1029.31
2019-02-26T10:22:40.469Z,1029.29
2019-02-26T10:23:39.343Z,1029.37
2019-02-26T10:24:40.411Z,1029.37
2019-02-26T10:25:39.344Z,1029.36
2019-02-26T10:26:41.094Z,1029.31
2019-02-26T10:27:41.270Z,1029.42
2019-02-26T10:28:40.338Z,1029.42
2019-02-26T10:29:41.894Z,1029.43
2019-02-26T10:30:41.589Z,1029.36
2019-02-26T10:31:41.082Z,1029.36
2019-02-26T10:32:39.232Z,1029.39
2019-02-26T10:33:41.127Z,1029.44
2019-02-26T10:34:39.216Z,1029.51
2019-02-26T10:35:42.032Z,1029.56
2019-02-26T10:36:43.442Z,1029.54
2019-02-26T10:37:41.024Z,1029.54
2019-02-26T10:38:39.166Z,1029.57
2019-02-26T10:39:39.164Z,1029.56
2019-02-26T10:40:50.691Z,1029.55
2019-02-26T10:41:42.266Z,1029.50
2019-02-26T10:42:39.938Z,1029.54
2019-02-26T10:43:40.022Z,1029.52
2019-02-26T10:44:39.110Z,1029.47
2019-02-26T10:45:44.141Z,1029.39
2019-02-26T10:46:42.724Z,1029.41
2019-02-26T10:47:39.069Z,1029.34
2019-02-26T10:48:41.060Z,1029.36
2019-02-26T10:49:39.047Z,1029.33
2019-02-26T10:50:42.239Z,1029.32
2019-02-26T10:51:42.393Z,1029.32
2019-02-26T10:52:39.010Z,1029.33
2019-02-26T10:53:39.002Z,1029.31
2019-02-26T10:54:40.555Z,1029.34
2019-02-26T10:55:41.695Z,1029.35
2019-02-26T10:56:41.710Z,1029.28
2019-02-26T10:57:39.006Z,1029.28
2019-02-26T10:58:39.019Z,1029.30
2019-02-26T10:59:41.805Z,1029.22
2019-02-26T11:00:38.918Z,1029.24
2019-02-26T11:01:38.938Z,1029.26
2019-02-26T11:02:40.835Z,1029.32
2019-02-26T11:03:41.643Z,1029.34
2019-02-26T11:04:41.844Z,1029.36
2019-02-26T11:05:39.862Z,1029.37
2019-02-26T11:06:41.742Z,1029.34
2019-02-26T11:07:40.094Z,1029.38
2019-02-26T11:08:38.830Z,1029.35
2019-02-26T11:09:38.832Z,1029.31
2019-02-26T11:10:41.801Z,1029.33
2019-02-26T11:11:39.998Z,1029.32
2019-02-26T11:12:38.792Z,1029.30
2019-02-26T11:13:40.676Z,1029.33
2019-02-26T11:14:39.634Z,1029.24
2019-02-26T11:15:38.763Z,1029.29
2019-02-26T11:16:39.151Z,1029.27
2019-02-26T11:17:38.730Z,1029.19
2019-02-26T11:18:39.812Z,1029.16
2019-02-26T11:19:41.642Z,1029.19
2019-02-26T11:20:38.712Z,1029.12
2019-02-26T11:21:38.740Z,1029.09
2019-02-26T11:22:41.646Z,1029.08
2019-02-26T11:23:40.849Z,1029.04
2019-02-26T11:24:38.671Z,1028.98
2019-02-26T11:25:38.651Z,1028.93
2019-02-26T11:26:40.747Z,1028.90
2019-02-26T11:27:40.873Z,1028.92
2019-02-26T11:28:40.549Z,1028.93
2019-02-26T11:29:40.663Z,1028.88
2019-02-26T11:30:38.587Z,1028.86
2019-02-26T11:31:39.732Z,1028.83
2019-02-26T11:32:40.390Z,1028.77
2019-02-26T11:33:38.547Z,1028.71
2019-02-26T11:34:38.545Z,1028.76
2019-02-26T11:35:39.654Z,1028.73
2019-02-26T11:36:40.892Z,1028.71
2019-02-26T11:37:38.503Z,1028.67
2019-02-26T11:38:40.318Z,1028.72
2019-02-26T11:39:38.483Z,1028.75
2019-02-26T11:40:38.470Z,1028.74
2019-02-26T11:42:39.918Z,1028.73
2019-02-26T11:43:38.438Z,1028.75
2019-02-26T11:44:38.428Z,1028.81
2019-02-26T11:45:40.042Z,1028.63
2019-02-26T11:46:38.424Z,1028.71
2019-02-26T11:47:39.146Z,1028.79
2019-02-26T11:48:38.659Z,1028.78
2019-02-26T11:49:39.513Z,1028.70
2019-02-26T11:50:38.354Z,1028.74
2019-02-26T11:51:41.846Z,1028.72
2019-02-26T11:52:38.330Z,1028.77
2019-02-26T11:54:40.228Z,1028.79
2019-02-26T11:55:38.474Z,1028.76
2019-02-26T11:56:42.040Z,1028.71
2019-02-26T11:57:39.838Z,1028.74
2019-02-26T11:58:38.438Z,1028.75
2019-02-26T11:59:40.283Z,1028.76
2019-02-26T12:00:41.724Z,1028.74
2019-02-26T12:01:39.507Z,1028.76
2019-02-26T12:02:39.234Z,1028.68
2019-02-26T12:03:38.934Z,1028.65
2019-02-26T12:04:38.207Z,1028.65
2019-02-26T12:05:39.546Z,1028.59
2019-02-26T12:06:38.210Z,1028.56
2019-02-26T12:07:38.165Z,1028.55